createdAt,value
2022-11-19T00:01:10.882Z,96254.06
2022-11-19T00:03:38.682Z,96258.84
2022-11-19T00:06:07.932Z,96258.72
2022-11-19T00:08:34.990Z,96253.84
2022-11-19T00:11:15.371Z,96252.31
2022-11-19T00:13:43.174Z,96259.19
2022-11-19T00:16:12.751Z,96253.53
2022-11-19T00:18:40.709Z,96261.03
2022-11-19T00:21:12.473Z,96262.25
2022-11-19T00:23:39.966Z,96262.97
2022-11-19T00:26:11.754Z,96269.66
2022-11-19T00:28:39.055Z,96262.75
2022-11-19T00:31:08.430Z,96264.06
2022-11-19T00:33:35.448Z,96263.34
2022-11-19T00:36:03.007Z,96259.19
2022-11-19T00:38:30.834Z,96261.84
2022-11-19T00:40:57.913Z,96263.84
2022-11-19T00:43:43.508Z,96263.16
2022-11-19T00:46:10.639Z,96259.69
2022-11-19T00:48:39.139Z,96263.06
2022-11-19T00:51:09.622Z,96262.34
2022-11-19T00:53:36.915Z,96264.38
2022-11-19T00:56:06.297Z,96266.41
2022-11-19T00:58:33.170Z,96269.84
2022-11-19T01:00:59.889Z,96268.44
2022-11-19T01:03:26.734Z,96265.69
2022-11-19T01:05:53.661Z,96262.22
2022-11-19T01:08:20.425Z,96269.16
2022-11-19T01:10:47.113Z,96265.69
2022-11-19T01:13:32.736Z,96265.69
2022-11-19T01:15:59.440Z,96265.69
2022-11-19T01:18:26.854Z,96273.19
2022-11-19T01:20:53.940Z,96269.16
2022-11-19T01:23:20.620Z,96267.69
2022-11-19T01:25:47.521Z,96268.44
2022-11-19T01:28:14.259Z,96273.19
2022-11-19T01:30:42.531Z,96263.56
2022-11-19T01:33:16.839Z,96270.44
2022-11-19T01:35:54.156Z,96276.66
2022-11-19T01:38:20.947Z,96280.09
2022-11-19T01:40:47.585Z,96271.28
2022-11-19T01:43:14.459Z,96271.19
2022-11-19T01:45:44.604Z,96287.63
2022-11-19T01:48:14.590Z,96287.63
2022-11-19T01:50:59.658Z,96280.09
2022-11-19T01:53:29.490Z,96282.84
2022-11-19T01:56:03.750Z,96277.38
2022-11-19T01:58:40.121Z,96280.09
2022-11-19T02:01:10.920Z,96274.63
2022-11-19T02:03:38.936Z,96280.09
2022-11-19T02:06:06.582Z,96280.09
2022-11-19T02:08:45.142Z,96280.09
2022-11-19T02:11:18.034Z,96282.13
2022-11-19T02:14:13.514Z,96283.56
2022-11-19T02:16:54.273Z,96278.66
2022-11-19T02:19:34.667Z,96288.91
2022-11-19T02:22:20.114Z,96269.16
2022-11-19T02:25:20.402Z,96277.25
2022-11-19T02:28:08.497Z,96278.66
2022-11-19T02:30:40.126Z,96279.88
2022-11-19T02:33:14.948Z,96279.88
2022-11-19T02:35:41.694Z,96273.78
2022-11-19T02:38:40.245Z,96284.03
2022-11-19T02:41:38.447Z,96284.75
2022-11-19T02:44:35.730Z,96282.50
2022-11-19T02:47:05.614Z,96287.97
2022-11-19T02:49:34.335Z,96283.13
2022-11-19T02:52:01.680Z,96288.59
2022-11-19T02:54:28.753Z,96289.31
2022-11-19T02:57:00.700Z,96298.94
2022-11-19T03:00:01.677Z,96296.19
2022-11-19T03:02:53.570Z,96298.84
2022-11-19T03:05:22.580Z,96299.56
2022-11-19T03:07:50.401Z,96301.59
2022-11-19T03:10:18.468Z,96296.09
2022-11-19T03:12:51.561Z,96297.44
2022-11-19T03:16:06.309Z,96298.84
2022-11-19T03:18:35.906Z,96296.09
2022-11-19T03:21:15.972Z,96287.78
2022-11-19T03:23:53.449Z,96291.94
2022-11-19T03:26:40.337Z,96289.91
2022-11-19T03:29:10.188Z,96287.78
2022-11-19T03:31:38.727Z,96288.50
2022-11-19T03:34:11.680Z,96289.81
2022-11-19T03:36:40.785Z,96287.09
2022-11-19T03:39:14.374Z,96292.56
2022-11-19T03:41:42.614Z,96290.53
2022-11-19T03:44:31.514Z,96292.66
2022-11-19T03:47:02.123Z,96287.78
2022-11-19T03:49:31.731Z,96286.88
2022-11-19T03:52:19.496Z,96290.63
2022-11-19T03:54:46.637Z,96287.78
2022-11-19T03:57:16.141Z,96294.59
2022-11-19T03:59:42.877Z,96291.13
2022-11-19T04:02:11.332Z,96291.72
2022-11-19T04:04:38.797Z,96295.19
2022-11-19T04:07:08.470Z,96294.47
2022-11-19T04:09:35.632Z,96302.06
2022-11-19T04:12:02.597Z,96295.88
2022-11-19T04:14:29.391Z,96300.66
2022-11-19T04:16:56.561Z,96299.94
2022-11-19T04:19:23.290Z,96301.38
2022-11-19T04:21:50.353Z,96306.84
2022-11-19T04:24:17.420Z,96298.03
2022-11-19T04:26:44.126Z,96308.28
2022-11-19T04:29:10.819Z,96308.28
2022-11-19T04:31:37.811Z,96310.28
2022-11-19T04:34:04.724Z,96306.25
2022-11-19T04:36:31.426Z,96302.06
2022-11-19T04:38:58.225Z,96300.06
2022-11-19T04:41:25.183Z,96311.03
2022-11-19T04:43:51.993Z,96319.25
2022-11-19T04:46:18.770Z,96302.81
2022-11-19T04:48:45.626Z,96309.69
2022-11-19T04:51:12.279Z,96311.03
2022-11-19T04:53:39.038Z,96311.03
2022-11-19T04:56:06.626Z,96317.91
2022-11-19T04:58:34.857Z,96321.25
2022-11-19T05:01:01.678Z,96323.97
2022-11-19T05:03:28.954Z,96318.50
2022-11-19T05:05:55.603Z,96319.94
2022-11-19T05:08:22.602Z,96321.97
2022-11-19T05:10:49.258Z,96321.97
2022-11-19T05:13:16.024Z,96321.25
2022-11-19T05:15:42.740Z,96323.28
2022-11-19T05:18:09.582Z,96326.00
2022-11-19T05:20:36.308Z,96322.56
2022-11-19T05:23:03.058Z,96326.72
2022-11-19T05:25:29.698Z,96323.28
2022-11-19T05:27:56.420Z,96328.75
2022-11-19T05:30:23.474Z,96325.31
2022-11-19T05:32:50.329Z,96322.56
2022-11-19T05:35:17.177Z,96326.00
2022-11-19T05:37:43.878Z,96339.00
2022-11-19T05:40:10.834Z,96330.78
2022-11-19T05:42:37.615Z,96330.06
2022-11-19T05:45:04.788Z,96334.84
2022-11-19T05:47:31.575Z,96325.91
2022-11-19T05:49:58.342Z,96334.13
2022-11-19T05:52:25.534Z,96341.03
2022-11-19T05:54:52.912Z,96332.09
2022-11-19T05:57:19.838Z,96335.47
2022-11-19T05:59:46.562Z,96333.31
2022-11-19T06:02:13.307Z,96330.56
2022-11-19T06:04:39.986Z,96338.06
2022-11-19T06:07:12.089Z,96336.03
2022-11-19T06:09:40.113Z,96344.25
2022-11-19T06:12:07.154Z,96342.84
2022-11-19T06:14:33.974Z,96347.00
2022-11-19T06:17:01.449Z,96355.22
2022-11-19T06:19:28.170Z,96350.47
2022-11-19T06:21:54.849Z,96353.22
2022-11-19T06:24:21.721Z,96356.53
2022-11-19T06:26:48.507Z,96360.69
2022-11-19T06:29:16.536Z,96357.94
2022-11-19T06:31:43.757Z,96361.44
2022-11-19T06:34:11.538Z,96370.94
2022-11-19T06:36:42.793Z,96368.19
2022-11-19T06:39:12.014Z,96370.94
2022-11-19T06:41:38.726Z,96369.63
2022-11-19T06:44:05.441Z,96373.66
2022-11-19T06:46:32.121Z,96375.69
2022-11-19T06:48:58.954Z,96375.59
2022-11-19T06:51:25.892Z,96377.09
2022-11-19T06:53:52.621Z,96379.16
2022-11-19T06:56:19.295Z,96380.19
2022-11-19T06:58:46.188Z,96383.56
2022-11-19T07:01:15.155Z,96384.28
2022-11-19T07:03:42.328Z,96390.00
2022-11-19T07:06:09.265Z,96394.53
2022-11-19T07:08:37.435Z,96408.09
2022-11-19T07:11:24.523Z,96409.91
2022-11-19T07:13:57.848Z,96407.63
2022-11-19T07:16:30.599Z,96418.22
2022-11-19T07:19:02.328Z,96423.91
2022-11-19T07:21:33.265Z,96414.50
2022-11-19T07:24:01.639Z,96420.34
2022-11-19T07:26:28.460Z,96421.28
2022-11-19T07:28:55.285Z,96415.59
2022-11-19T07:31:21.956Z,96414.16
2022-11-19T07:33:48.808Z,96413.31
2022-11-19T07:36:18.374Z,96409.75
2022-11-19T07:38:45.987Z,96416.03
2022-11-19T07:41:31.891Z,96417.81
2022-11-19T07:43:58.624Z,96420.09
2022-11-19T07:46:25.302Z,96425.41
2022-11-19T07:48:56.869Z,96428.34
2022-11-19T07:51:24.314Z,96428.00
2022-11-19T07:53:51.437Z,96438.56
2022-11-19T07:56:19.070Z,96450.69
2022-11-19T07:58:45.832Z,96453.22
2022-11-19T08:01:18.523Z,96452.59
2022-11-19T08:03:49.614Z,96446.75
2022-11-19T08:06:20.878Z,96454.34
2022-11-19T08:08:47.900Z,96457.09
2022-11-19T08:11:16.231Z,96452.16
2022-11-19T08:13:43.617Z,96456.16
2022-11-19T08:16:12.631Z,96462.19
2022-11-19T08:18:39.771Z,96466.34
2022-11-19T08:21:11.339Z,96466.00
2022-11-19T08:23:39.061Z,96460.91
2022-11-19T08:26:09.015Z,96466.88
2022-11-19T08:28:35.878Z,96470.19
2022-11-19T08:31:09.886Z,96473.16
2022-11-19T08:33:36.722Z,96478.44
2022-11-19T08:36:03.909Z,96477.22
2022-11-19T08:38:34.537Z,96476.88
2022-11-19T08:41:22.619Z,96482.47
2022-11-19T08:43:49.362Z,96477.50
2022-11-19T08:46:16.071Z,96476.06
2022-11-19T08:48:42.994Z,96473.84
2022-11-19T08:51:10.639Z,96475.16
2022-11-19T08:53:37.645Z,96473.13
2022-11-19T08:56:05.416Z,96471.94
2022-11-19T08:58:32.482Z,96473.50
2022-11-19T09:00:59.290Z,96470.41
2022-11-19T09:03:26.409Z,96476.94
2022-11-19T09:06:00.448Z,96465.13
2022-11-19T09:08:27.433Z,96471.09
2022-11-19T09:10:55.489Z,96468.03
2022-11-19T09:13:22.514Z,96467.94
2022-11-19T09:15:50.017Z,96468.75
2022-11-19T09:18:17.849Z,96471.94
2022-11-19T09:20:44.509Z,96473.75
2022-11-19T09:23:11.346Z,96471.00
2022-11-19T09:25:38.057Z,96481.22
2022-11-19T09:28:05.072Z,96481.81
2022-11-19T09:30:32.170Z,96483.81
2022-11-19T09:33:04.193Z,96480.97
2022-11-19T09:35:34.395Z,96494.16
2022-11-19T09:38:01.210Z,96487.03
2022-11-19T09:40:28.078Z,96491.69
2022-11-19T09:42:59.106Z,96492.75
2022-11-19T09:45:53.383Z,96496.34
2022-11-19T09:48:32.518Z,96495.88
2022-11-19T09:51:07.695Z,96495.13
2022-11-19T09:53:55.023Z,96498.13
2022-11-19T09:56:33.569Z,96499.44
2022-11-19T09:59:03.702Z,96508.81
2022-11-19T10:01:30.469Z,96506.31
2022-11-19T10:03:57.467Z,96499.44
2022-11-19T10:06:40.099Z,96506.31
2022-11-19T10:09:17.767Z,96503.69
2022-11-19T10:12:12.615Z,96513.28
2022-11-19T10:14:45.411Z,96513.81
2022-11-19T10:17:58.624Z,96508.53
2022-11-19T10:20:33.237Z,96507.56
2022-11-19T10:23:17.133Z,96518.75
2022-11-19T10:25:46.531Z,96515.19
2022-11-19T10:28:15.894Z,96527.63
2022-11-19T10:30:49.254Z,96514.66
2022-11-19T10:33:29.438Z,96513.59
2022-11-19T10:36:03.616Z,96518.44
2022-11-19T10:38:49.998Z,96515.72
2022-11-19T10:41:48.587Z,96518.81
2022-11-19T10:44:43.086Z,96511.06
2022-11-19T10:47:17.789Z,96512.56
2022-11-19T10:49:46.017Z,96522.81
2022-11-19T10:52:28.901Z,96515.03
2022-11-19T10:55:20.805Z,96515.03
2022-11-19T10:57:48.518Z,96518.13
2022-11-19T11:00:17.130Z,96506.72
2022-11-19T11:02:54.525Z,96524.72
2022-11-19T11:05:21.315Z,96518.38
2022-11-19T11:07:50.322Z,96513.72
2022-11-19T11:10:28.399Z,96513.78
2022-11-19T11:13:16.791Z,96508.34
2022-11-19T11:15:50.587Z,96509.69
2022-11-19T11:18:18.213Z,96510.28
2022-11-19T11:20:47.770Z,96505.91
2022-11-19T11:23:19.796Z,96514.97
2022-11-19T11:25:53.926Z,96503.44
2022-11-19T11:28:22.477Z,96511.19
2022-11-19T11:31:10.349Z,96512.47
2022-11-19T11:33:41.232Z,96504.25
2022-11-19T11:36:14.045Z,96510.19
2022-11-19T11:38:49.187Z,96508.31
2022-11-19T11:44:14.638Z,96506.31
2022-11-19T11:46:45.933Z,96507.03
2022-11-19T11:49:18.957Z,96502.97
2022-11-19T11:51:45.724Z,96504.53
2022-11-19T11:54:20.513Z,96501.09
2022-11-19T11:56:47.646Z,96498.22
2022-11-19T11:59:21.667Z,96497.16
2022-11-19T12:02:01.761Z,96488.25
2022-11-19T12:04:29.250Z,96498.47
2022-11-19T12:07:40.252Z,96494.78
2022-11-19T12:10:35.818Z,96499.53
2022-11-19T12:13:17.661Z,96502.16
2022-11-19T12:15:56.444Z,96497.72
2022-11-19T12:18:39.509Z,96499.97
2022-11-19T12:21:11.937Z,96494.69
2022-11-19T12:24:17.247Z,96488.78
2022-11-19T12:26:58.931Z,96489.03
2022-11-19T12:29:42.013Z,96478.94
2022-11-19T12:32:19.407Z,96483.78
2022-11-19T12:34:56.748Z,96486.31
2022-11-19T12:37:39.062Z,96496.66
2022-11-19T12:40:26.547Z,96483.53
2022-11-19T12:43:20.240Z,96484.88
2022-11-19T12:46:05.677Z,96492.88
2022-11-19T12:48:47.217Z,96486.22
2022-11-19T12:51:33.284Z,96494.91
2022-11-19T12:54:31.708Z,96493.59
2022-11-19T12:57:11.993Z,96492.53
2022-11-19T12:59:48.350Z,96487.16
2022-11-19T13:02:58.625Z,96484.31
2022-11-19T13:05:37.717Z,96490.75
2022-11-19T13:08:40.236Z,96490.53
2022-11-19T13:11:16.413Z,96496.97
2022-11-19T13:13:55.194Z,96497.47
2022-11-19T13:16:22.753Z,96490.84
2022-11-19T13:18:52.388Z,96496.31
2022-11-19T13:21:24.522Z,96497.25
2022-11-19T13:23:52.418Z,96497.47
2022-11-19T13:26:30.347Z,96502.34
2022-11-19T13:29:30.032Z,96495.56
2022-11-19T13:32:01.365Z,96498.66
2022-11-19T13:34:47.402Z,96498.91
2022-11-19T13:37:22.606Z,96498.50
2022-11-19T13:39:53.678Z,96494.41
2022-11-19T13:42:40.541Z,96497.13
2022-11-19T13:45:14.863Z,96493.72
2022-11-19T13:47:58.093Z,96489.91
2022-11-19T13:50:31.330Z,96495.72
2022-11-19T13:53:05.586Z,96490.56
2022-11-19T13:55:37.796Z,96501.31
2022-11-19T13:58:19.634Z,96491.81
2022-11-19T14:01:09.760Z,96493.25
2022-11-19T14:04:13.772Z,96499.06
2022-11-19T14:06:55.652Z,96497.13
2022-11-19T14:09:36.173Z,96497.84
2022-11-19T14:12:57.236Z,96500.00
2022-11-19T14:16:00.729Z,96501.53
2022-11-19T14:18:54.907Z,96502.75
2022-11-19T14:21:44.090Z,96507.75
2022-11-19T14:24:44.234Z,96494.53
2022-11-19T14:27:17.878Z,96497.41
2022-11-19T14:29:44.862Z,96502.91
2022-11-19T14:32:11.558Z,96503.38
2022-11-19T14:35:22.128Z,96508.03
2022-11-19T14:38:05.862Z,96507.66
2022-11-19T14:40:33.680Z,96507.84
2022-11-19T14:43:18.798Z,96508.31
2022-11-19T14:46:00.986Z,96500.69
2022-11-19T14:48:29.421Z,96508.06
2022-11-19T14:51:06.308Z,96507.97
2022-11-19T14:53:34.622Z,96505.34
2022-11-19T14:56:01.858Z,96509.03
2022-11-19T14:58:28.772Z,96509.75
2022-11-19T15:01:13.584Z,96510.47
2022-11-19T15:03:52.510Z,96509.66
2022-11-19T15:06:19.919Z,96512.97
2022-11-19T15:08:57.274Z,96509.50
2022-11-19T15:11:23.980Z,96512.00
2022-11-19T15:14:27.987Z,96514.75
2022-11-19T15:16:55.582Z,96526.19
2022-11-19T15:19:37.697Z,96528.31
2022-11-19T15:22:48.951Z,96526.19
2022-11-19T15:25:39.698Z,96530.34
2022-11-19T15:28:09.372Z,96534.63
2022-11-19T15:30:43.602Z,96532.50
2022-11-19T15:33:16.266Z,96533.56
2022-11-19T15:36:08.563Z,96537.22
2022-11-19T15:38:42.553Z,96544.84
2022-11-19T15:41:14.268Z,96535.81
2022-11-19T15:43:43.877Z,96540.09
2022-11-19T15:46:13.878Z,96541.59
2022-11-19T15:49:14.154Z,96540.78
2022-11-19T15:52:02.027Z,96548.84
2022-11-19T15:54:33.693Z,96543.38
2022-11-19T15:57:17.753Z,96542.19
2022-11-19T15:59:51.789Z,96538.25
2022-11-19T16:02:22.143Z,96539.78
2022-11-19T16:04:50.846Z,96539.88
2022-11-19T16:07:23.402Z,96537.16
2022-11-19T16:09:50.861Z,96537.38
2022-11-19T16:12:40.883Z,96541.06
2022-11-19T16:15:42.163Z,96553.28
2022-11-19T16:18:13.683Z,96554.69
2022-11-19T16:20:40.858Z,96551.50
2022-11-19T16:23:09.002Z,96550.44
2022-11-19T16:25:37.744Z,96550.09
2022-11-19T16:28:07.333Z,96555.69
2022-11-19T16:30:49.206Z,96547.75
2022-11-19T16:33:21.447Z,96553.91
2022-11-19T16:35:52.814Z,96558.41
2022-11-19T16:38:28.239Z,96559.59
2022-11-19T16:41:14.618Z,96558.31
2022-11-19T16:43:48.374Z,96561.16
2022-11-19T16:46:17.683Z,96567.94
2022-11-19T16:48:50.588Z,96565.91
2022-11-19T16:51:29.422Z,96569.00
2022-11-19T16:53:56.133Z,96569.50
2022-11-19T16:56:23.425Z,96567.97
2022-11-19T16:58:54.547Z,96577.41
2022-11-19T17:01:23.475Z,96582.06
2022-11-19T17:03:59.875Z,96579.72
2022-11-19T17:06:31.308Z,96581.50
2022-11-19T17:09:00.544Z,96585.28
2022-11-19T17:12:04.346Z,96589.25
2022-11-19T17:14:31.173Z,96590.19
2022-11-19T17:16:57.976Z,96591.16
2022-11-19T17:19:27.218Z,96593.41
2022-11-19T17:22:00.232Z,96601.84
2022-11-19T17:24:31.653Z,96600.78
2022-11-19T17:26:58.766Z,96601.03
2022-11-19T17:29:26.297Z,96599.81
2022-11-19T17:31:54.653Z,96610.31
2022-11-19T17:34:22.472Z,96616.72
2022-11-19T17:36:50.153Z,96612.06
2022-11-19T17:39:22.516Z,96615.66
2022-11-19T17:42:14.837Z,96619.94
2022-11-19T17:44:44.754Z,96623.50
2022-11-19T17:47:23.627Z,96618.63
2022-11-19T17:49:51.358Z,96623.84
2022-11-19T17:52:27.118Z,96621.00
2022-11-19T17:54:56.302Z,96624.47
2022-11-19T17:57:23.004Z,96618.38
2022-11-19T17:59:49.951Z,96624.72
2022-11-19T18:02:25.060Z,96626.72
2022-11-19T18:04:52.717Z,96626.22
2022-11-19T18:07:19.518Z,96631.09
2022-11-19T18:09:46.793Z,96628.38
2022-11-19T18:12:18.288Z,96629.81
2022-11-19T18:14:45.189Z,96641.59
2022-11-19T18:17:13.099Z,96636.81
2022-11-19T18:19:40.223Z,96628.00
2022-11-19T18:22:10.092Z,96626.72
2022-11-19T18:24:36.873Z,96628.84
2022-11-19T18:27:03.881Z,96630.28
2022-11-19T18:29:31.972Z,96628.94
2022-11-19T18:31:58.689Z,96625.50
2022-11-19T18:34:25.554Z,96635.13
2022-11-19T18:36:52.321Z,96641.34
2022-11-19T18:39:19.677Z,96638.72
2022-11-19T18:41:47.037Z,96642.19
2022-11-19T18:44:34.113Z,96637.41
2022-11-19T18:47:03.078Z,96636.00
2022-11-19T18:49:29.929Z,96645.63
2022-11-19T18:51:56.772Z,96646.94
2022-11-19T18:54:23.593Z,96644.31
2022-11-19T18:56:50.407Z,96650.50
2022-11-19T18:59:17.123Z,96647.75
2022-11-19T19:01:44.038Z,96650.50
2022-11-19T19:04:14.353Z,96647.06
2022-11-19T19:06:41.731Z,96636.81
2022-11-19T19:09:10.435Z,96641.56
2022-11-19T19:11:56.550Z,96640.25
2022-11-19T19:14:23.364Z,96647.06
2022-11-19T19:16:51.019Z,96653.94
2022-11-19T19:19:20.150Z,96647.75
2022-11-19T19:21:47.370Z,96642.28
2022-11-19T19:24:14.548Z,96648.47
2022-11-19T19:26:41.741Z,96655.41
2022-11-19T19:29:08.591Z,96649.91
2022-11-19T19:31:35.952Z,96649.91
2022-11-19T19:34:03.439Z,96655.41
2022-11-19T19:36:30.529Z,96651.22
2022-11-19T19:38:57.228Z,96652.66
2022-11-19T19:41:25.567Z,96658.84
2022-11-19T19:43:53.724Z,96660.16
2022-11-19T19:46:22.341Z,96658.84
2022-11-19T19:48:53.847Z,96653.38
2022-11-19T19:51:22.489Z,96650.63
2022-11-19T19:53:51.090Z,96656.81
2022-11-19T19:56:23.187Z,96658.13
2022-11-19T19:58:50.942Z,96663.63
2022-11-19T20:01:19.220Z,96662.91
2022-11-19T20:03:49.260Z,96651.22
2022-11-19T20:06:21.793Z,96651.94
2022-11-19T20:08:48.511Z,96655.41
2022-11-19T20:11:20.690Z,96655.97
2022-11-19T20:13:47.999Z,96653.94
2022-11-19T20:16:18.514Z,96661.47
2022-11-19T20:18:45.871Z,96653.09
2022-11-19T20:21:14.594Z,96654.09
2022-11-19T20:23:42.373Z,96660.75
2022-11-19T20:26:16.026Z,96657.91
2022-11-19T20:28:43.045Z,96672.91
2022-11-19T20:31:17.942Z,96681.13
2022-11-19T20:33:45.805Z,96676.94
2022-11-19T20:36:15.088Z,96685.91
2022-11-19T20:38:43.543Z,96676.94
2022-11-19T20:41:32.157Z,96674.94
2022-11-19T20:44:18.080Z,96679.81
2022-11-19T20:46:45.178Z,96689.34
2022-11-19T20:49:16.932Z,96681.84
2022-11-19T20:51:45.098Z,96685.91
2022-11-19T20:54:12.359Z,96689.34
2022-11-19T20:56:39.657Z,96670.03
2022-11-19T20:59:06.490Z,96689.94
2022-11-19T21:01:33.859Z,96687.19
2022-11-19T21:04:00.958Z,96696.13
2022-11-19T21:06:27.927Z,96693.38
2022-11-19T21:08:54.585Z,96695.41
2022-11-19T21:11:21.629Z,96687.91
2022-11-19T21:13:48.365Z,96691.94
2022-11-19T21:16:18.726Z,96697.44
2022-11-19T21:18:45.932Z,96690.63
2022-11-19T21:21:15.217Z,96688.50
2022-11-19T21:23:42.677Z,96693.38
2022-11-19T21:26:16.959Z,96685.06
2022-11-19T21:28:48.499Z,96693.97
2022-11-19T21:31:16.377Z,96691.84
2022-11-19T21:33:44.042Z,96691.94
2022-11-19T21:36:11.623Z,96696.72
2022-11-19T21:38:38.649Z,96704.94
2022-11-19T21:41:05.819Z,96691.25
2022-11-19T21:43:32.764Z,96690.53
2022-11-19T21:45:59.562Z,96691.13
2022-11-19T21:48:27.229Z,96684.94
2022-11-19T21:50:54.506Z,96682.91
2022-11-19T21:53:21.494Z,96680.78
2022-11-19T21:55:48.739Z,96676.00
2022-11-19T21:58:15.609Z,96674.56
2022-11-19T22:00:43.975Z,96681.50
2022-11-19T22:03:10.806Z,96678.75
2022-11-19T22:05:37.679Z,96675.31
2022-11-19T22:08:04.447Z,96682.22
2022-11-19T22:10:31.339Z,96679.47
2022-11-19T22:12:59.046Z,96683.53
2022-11-19T22:15:27.028Z,96677.31
2022-11-19T22:17:54.070Z,96673.84
2022-11-19T22:20:20.948Z,96677.91
2022-11-19T22:22:47.609Z,96680.66
2022-11-19T22:25:14.655Z,96692.91
2022-11-19T22:27:41.901Z,96691.50
2022-11-19T22:30:10.236Z,96690.06
2022-11-19T22:32:37.278Z,96694.22
2022-11-19T22:35:04.874Z,96684.59
2022-11-19T22:37:32.075Z,96683.16
2022-11-19T22:39:58.909Z,96683.16
2022-11-19T22:42:25.710Z,96691.34
2022-11-19T22:44:52.962Z,96692.69
2022-11-19T22:47:19.678Z,96694.00
2022-11-19T22:49:46.395Z,96698.75
2022-11-19T22:52:14.678Z,96702.22
2022-11-19T22:54:42.088Z,96702.81
2022-11-19T22:57:09.363Z,96702.81
2022-11-19T22:59:36.209Z,96710.31
2022-11-19T23:02:03.010Z,96703.38
2022-11-19T23:04:29.751Z,96702.69
2022-11-19T23:06:56.825Z,96699.22
2022-11-19T23:09:23.726Z,96700.53
2022-11-19T23:12:09.032Z,96699.22
2022-11-19T23:14:35.798Z,96697.81
2022-11-19T23:17:02.527Z,96705.31
2022-11-19T23:19:29.346Z,96704.59
2022-11-19T23:21:55.949Z,96712.09
2022-11-19T23:24:22.702Z,96700.44
2022-11-19T23:26:49.415Z,96714.69
2022-11-19T23:29:16.250Z,96716.84
2022-11-19T23:31:42.894Z,96716.84
2022-11-19T23:34:09.633Z,96708.66
2022-11-19T23:36:38.614Z,96716.84
2022-11-19T23:39:08.151Z,96702.44
2022-11-19T23:41:34.948Z,96722.34
2022-11-19T23:44:01.950Z,96714.84
2022-11-19T23:46:31.606Z,96716.84
2022-11-19T23:48:58.956Z,96701.72
2022-11-19T23:51:29.558Z,96720.16
2022-11-19T23:53:56.285Z,96708.41
2022-11-19T23:56:24.455Z,96710.78
2022-11-19T23:58:51.857Z,96707.78
